createdAt,value
2022-12-22T00:01:59.399Z,25.62
2022-12-22T00:04:45.090Z,23.65
2022-12-22T00:07:30.669Z,22.77
2022-12-22T00:10:16.337Z,23.73
2022-12-22T00:13:01.953Z,22.87
2022-12-22T00:15:50.572Z,23.23
2022-12-22T00:18:35.922Z,23.73
2022-12-22T00:21:21.445Z,23.12
2022-12-22T00:24:06.976Z,23.10
2022-12-22T00:26:53.629Z,21.80
2022-12-22T00:29:39.501Z,22.15
2022-12-22T00:32:25.311Z,22.05
2022-12-22T00:35:10.839Z,22.13
2022-12-22T00:37:56.860Z,25.08
2022-12-22T00:40:46.668Z,24.27
2022-12-22T00:43:32.674Z,24.00
2022-12-22T00:46:20.292Z,24.50
2022-12-22T00:49:05.703Z,23.30
2022-12-22T00:51:51.435Z,22.83
2022-12-22T00:54:37.788Z,22.85
2022-12-22T00:57:24.431Z,21.85
2022-12-22T01:00:09.951Z,21.33
2022-12-22T01:02:55.703Z,22.50
2022-12-22T01:05:41.107Z,21.42
2022-12-22T01:08:28.220Z,21.92
2022-12-22T01:11:13.842Z,21.95
2022-12-22T01:13:59.409Z,23.42
2022-12-22T01:16:44.933Z,21.15
2022-12-22T01:19:30.709Z,21.98
2022-12-22T01:22:16.194Z,22.00
2022-12-22T01:25:02.793Z,20.52
2022-12-22T01:27:48.345Z,21.02
2022-12-22T01:30:34.016Z,21.73
2022-12-22T01:33:19.653Z,20.00
2022-12-22T01:36:05.323Z,24.85
2022-12-22T01:38:51.032Z,24.08
2022-12-22T01:41:39.137Z,25.50
2022-12-22T01:44:35.260Z,19.23
2022-12-22T01:47:48.731Z,19.08
2022-12-22T01:50:35.220Z,18.85
2022-12-22T01:53:21.808Z,18.37
2022-12-22T01:56:07.357Z,18.80
2022-12-22T01:58:56.119Z,18.73
2022-12-22T02:01:41.557Z,17.65
2022-12-22T02:04:27.118Z,17.65
2022-12-22T02:07:15.872Z,17.33
2022-12-22T02:10:17.186Z,18.45
2022-12-22T02:13:19.544Z,16.90
2022-12-22T02:16:12.300Z,16.27
2022-12-22T02:19:08.698Z,17.73
2022-12-22T02:22:06.595Z,19.05
2022-12-22T02:24:54.492Z,18.65
2022-12-22T02:30:28.330Z,16.55
2022-12-22T02:33:13.755Z,16.23
2022-12-22T02:36:01.800Z,16.87
2022-12-22T02:39:06.157Z,18.00
2022-12-22T02:42:29.989Z,16.55
2022-12-22T02:45:54.256Z,17.33
2022-12-22T02:48:48.950Z,16.77
2022-12-22T02:51:40.875Z,16.73
2022-12-22T02:54:26.447Z,17.60
2022-12-22T02:57:11.856Z,17.83
2022-12-22T02:59:57.472Z,16.98
2022-12-22T03:02:43.204Z,17.70
2022-12-22T03:05:28.808Z,17.10
2022-12-22T03:08:14.391Z,17.90
2022-12-22T03:10:59.993Z,17.52
2022-12-22T03:13:45.559Z,14.93
2022-12-22T03:16:31.239Z,17.60
2022-12-22T03:19:17.013Z,17.75
2022-12-22T03:22:02.569Z,17.05
2022-12-22T03:24:48.258Z,16.87
2022-12-22T03:27:15.163Z,21.60
2022-12-22T03:29:42.043Z,19.77
2022-12-22T03:32:08.898Z,19.73
2022-12-22T03:34:35.769Z,20.15
2022-12-22T03:39:29.240Z,17.85
2022-12-22T03:45:00.196Z,18.17
2022-12-22T03:47:27.054Z,18.02
2022-12-22T03:52:22.681Z,17.40
2022-12-22T03:54:49.607Z,19.87
2022-12-22T03:57:16.434Z,17.80
2022-12-22T04:02:19.798Z,15.90
2022-12-22T04:04:46.768Z,16.67
2022-12-22T04:10:00.263Z,14.60
2022-12-22T04:12:45.837Z,15.57
2022-12-22T04:15:12.678Z,15.52
2022-12-22T04:20:07.213Z,17.85
2022-12-22T04:22:34.029Z,16.27
2022-12-22T04:27:27.532Z,16.12
2022-12-22T04:32:21.061Z,15.57
2022-12-22T04:34:47.908Z,16.92
2022-12-22T04:39:51.675Z,15.80
2022-12-22T04:42:18.523Z,17.80
2022-12-22T04:47:12.094Z,16.10
2022-12-22T04:49:39.999Z,16.87
2022-12-22T04:52:06.883Z,14.90
2022-12-22T04:54:34.051Z,16.02
2022-12-22T04:57:01.216Z,16.60
2022-12-22T04:59:28.065Z,15.32
2022-12-22T05:01:54.959Z,15.80
2022-12-22T05:04:23.869Z,15.73
2022-12-22T05:06:50.962Z,16.15
2022-12-22T05:11:44.511Z,14.40
2022-12-22T05:14:11.370Z,15.32
2022-12-22T05:16:38.303Z,16.02
2022-12-22T05:19:05.234Z,15.23
2022-12-22T05:21:32.114Z,17.62
2022-12-22T05:23:58.959Z,16.02
2022-12-22T05:28:52.762Z,15.40
2022-12-22T05:31:25.598Z,16.62
2022-12-22T05:33:52.651Z,18.00
2022-12-22T05:36:19.915Z,17.73
2022-12-22T05:38:46.887Z,20.45
2022-12-22T05:41:14.294Z,19.58
2022-12-22T05:43:41.416Z,17.45
2022-12-22T05:46:11.342Z,18.27
2022-12-22T05:48:39.861Z,14.15
2022-12-22T05:51:08.513Z,14.55
2022-12-22T05:53:35.547Z,14.75
2022-12-22T05:56:02.596Z,15.50
2022-12-22T05:58:29.450Z,15.20
2022-12-22T06:03:25.220Z,16.10
2022-12-22T06:05:52.179Z,16.30
2022-12-22T06:08:19.378Z,16.10
2022-12-22T06:10:46.469Z,15.95
2022-12-22T06:13:13.322Z,16.48
2022-12-22T06:15:40.224Z,17.02
2022-12-22T06:18:07.089Z,21.75
2022-12-22T06:23:00.675Z,25.00
2022-12-22T06:25:27.505Z,27.52
2022-12-22T06:27:54.501Z,28.42
2022-12-22T06:32:54.305Z,26.52
2022-12-22T06:37:47.849Z,25.05
2022-12-22T06:43:08.109Z,22.67
2022-12-22T06:45:41.204Z,28.35
2022-12-22T06:48:09.431Z,29.23
2022-12-22T06:50:36.356Z,31.85
2022-12-22T06:53:03.899Z,33.15
2022-12-22T06:55:30.824Z,33.80
2022-12-22T07:00:25.606Z,32.30
2022-12-22T07:02:52.820Z,33.42
2022-12-22T07:05:20.200Z,30.98
2022-12-22T07:07:47.276Z,28.38
2022-12-22T07:10:14.175Z,26.20
2022-12-22T07:12:41.470Z,22.65
2022-12-22T07:15:08.976Z,21.15
2022-12-22T07:17:35.889Z,20.25
2022-12-22T07:20:02.984Z,16.90
2022-12-22T07:22:30.981Z,16.33
2022-12-22T07:24:58.983Z,16.62
2022-12-22T07:27:26.039Z,15.90
2022-12-22T07:29:52.893Z,15.65
2022-12-22T07:34:46.598Z,15.45
2022-12-22T07:37:13.997Z,13.68
2022-12-22T07:39:41.059Z,15.57
2022-12-22T07:42:26.387Z,15.27
2022-12-22T07:44:53.215Z,16.62
2022-12-22T07:50:05.431Z,15.40
2022-12-22T07:52:32.305Z,15.57
2022-12-22T07:54:59.317Z,16.73
2022-12-22T07:57:26.455Z,17.23
2022-12-22T07:59:54.163Z,16.65
2022-12-22T08:02:21.171Z,16.27
2022-12-22T08:04:48.273Z,15.80
2022-12-22T08:07:15.229Z,14.38
2022-12-22T08:09:42.104Z,15.05
2022-12-22T08:12:09.161Z,15.98
2022-12-22T08:14:35.995Z,14.68
2022-12-22T08:19:29.640Z,14.63
2022-12-22T08:21:56.515Z,15.57
2022-12-22T08:24:23.391Z,14.68
2022-12-22T08:26:53.997Z,14.35
2022-12-22T08:29:33.838Z,14.48
2022-12-22T08:32:00.994Z,15.02
2022-12-22T08:34:28.129Z,15.02
2022-12-22T08:36:57.982Z,15.18
2022-12-22T08:39:26.195Z,14.07
2022-12-22T08:41:53.658Z,15.38
2022-12-22T08:44:30.764Z,14.63
2022-12-22T08:46:59.267Z,15.15
2022-12-22T08:49:26.815Z,13.85
2022-12-22T08:51:54.549Z,14.13
2022-12-22T08:54:21.617Z,14.68
2022-12-22T08:56:49.666Z,16.27
2022-12-22T08:59:16.764Z,15.70
2022-12-22T09:01:47.385Z,16.73
2022-12-22T09:04:15.492Z,17.75
2022-12-22T09:06:42.459Z,18.42
2022-12-22T09:09:10.837Z,28.85
2022-12-22T09:11:38.332Z,41.90
2022-12-22T09:14:05.744Z,32.22
2022-12-22T09:16:34.068Z,25.95
2022-12-22T09:19:01.455Z,20.58
2022-12-22T09:21:29.051Z,17.35
2022-12-22T09:23:56.929Z,16.20
2022-12-22T09:26:25.956Z,16.98
2022-12-22T09:28:52.887Z,18.08
2022-12-22T09:31:21.494Z,16.50
2022-12-22T09:33:48.712Z,18.17
2022-12-22T09:36:18.415Z,17.02
2022-12-22T09:38:45.532Z,16.52
2022-12-22T09:41:23.676Z,15.65
2022-12-22T09:43:50.618Z,14.75
2022-12-22T09:46:28.828Z,15.27
2022-12-22T09:48:56.139Z,15.35
2022-12-22T09:51:27.174Z,16.05
2022-12-22T09:53:59.619Z,15.55
2022-12-22T09:56:28.822Z,15.45
2022-12-22T09:58:56.115Z,14.05
2022-12-22T10:01:35.716Z,16.02
2022-12-22T10:04:29.976Z,15.77
2022-12-22T10:07:02.811Z,14.70
2022-12-22T10:09:50.654Z,14.82
2022-12-22T10:12:24.357Z,15.05
2022-12-22T10:14:52.923Z,15.68
2022-12-22T10:17:24.117Z,13.20
2022-12-22T10:19:53.678Z,14.85
2022-12-22T10:22:46.077Z,15.63
2022-12-22T10:25:27.233Z,15.73
2022-12-22T10:28:01.772Z,15.60
2022-12-22T10:30:37.928Z,16.98
2022-12-22T10:33:11.773Z,17.65
2022-12-22T10:35:47.780Z,16.90
2022-12-22T10:38:27.889Z,16.23
2022-12-22T10:41:02.075Z,17.30
2022-12-22T10:43:40.323Z,17.23
2022-12-22T10:46:07.325Z,17.27
2022-12-22T10:48:36.910Z,17.08
2022-12-22T10:51:06.879Z,16.27
2022-12-22T10:53:52.772Z,15.98
2022-12-22T10:56:32.363Z,15.77
2022-12-22T10:59:02.198Z,15.75
2022-12-22T11:01:36.904Z,17.12
2022-12-22T11:04:26.239Z,16.67
2022-12-22T11:06:54.782Z,16.35
2022-12-22T11:09:33.891Z,16.40
2022-12-22T11:12:32.499Z,17.37
2022-12-22T11:15:24.588Z,18.47
2022-12-22T11:17:58.440Z,18.30
2022-12-22T11:20:47.886Z,17.73
2022-12-22T11:23:38.473Z,17.70
2022-12-22T11:26:31.685Z,18.70
2022-12-22T11:29:17.104Z,17.15
2022-12-22T11:31:56.120Z,18.12
2022-12-22T11:34:58.778Z,17.48
2022-12-22T11:37:47.719Z,17.77
2022-12-22T11:40:33.688Z,20.90
2022-12-22T11:43:34.706Z,18.60
2022-12-22T11:46:27.331Z,20.35
2022-12-22T11:49:19.297Z,18.70
2022-12-22T11:52:10.339Z,17.98
2022-12-22T11:55:25.796Z,17.95
2022-12-22T11:58:08.356Z,17.52
2022-12-22T12:01:13.715Z,16.37
2022-12-22T12:03:30.018Z,18.23
2022-12-22T12:06:15.441Z,18.25
2022-12-22T12:09:04.927Z,19.15
2022-12-22T12:11:56.202Z,18.48
2022-12-22T12:14:34.276Z,17.02
2022-12-22T12:17:13.414Z,18.17
2022-12-22T12:19:58.757Z,17.90
2022-12-22T12:22:36.852Z,18.73
2022-12-22T12:25:26.237Z,19.37
2022-12-22T12:28:08.069Z,17.98
2022-12-22T12:30:52.543Z,18.62
2022-12-22T12:33:36.607Z,16.50
2022-12-22T12:36:38.598Z,17.65
2022-12-22T12:39:24.488Z,18.30
2022-12-22T12:42:09.805Z,17.65
2022-12-22T12:44:37.294Z,19.00
2022-12-22T12:47:22.257Z,19.05
2022-12-22T12:49:53.217Z,20.30
2022-12-22T12:52:40.104Z,18.35
2022-12-22T12:55:34.635Z,20.45
2022-12-22T12:58:04.107Z,18.37
2022-12-22T13:00:34.105Z,20.05
2022-12-22T13:03:02.631Z,21.83
2022-12-22T13:05:33.502Z,19.67
2022-12-22T13:08:25.617Z,18.90
2022-12-22T13:10:55.620Z,19.30
2022-12-22T13:13:22.431Z,22.92
2022-12-22T13:18:34.764Z,27.27
2022-12-22T13:24:25.152Z,25.37
2022-12-22T13:26:55.388Z,22.05
2022-12-22T13:29:22.216Z,20.15
2022-12-22T13:32:01.315Z,24.50
2022-12-22T13:35:20.233Z,18.00
2022-12-22T13:37:43.563Z,23.98
2022-12-22T13:40:25.827Z,21.92
2022-12-22T13:42:55.547Z,19.27
2022-12-22T13:45:43.949Z,25.88
2022-12-22T13:48:35.926Z,23.08
2022-12-22T13:51:34.496Z,24.67
2022-12-22T13:54:09.907Z,20.75
2022-12-22T13:56:42.105Z,18.92
2022-12-22T13:59:21.895Z,15.45
2022-12-22T14:01:56.767Z,21.83
2022-12-22T14:04:23.886Z,22.37
2022-12-22T14:06:50.765Z,21.55
2022-12-22T14:12:12.001Z,22.70
2022-12-22T14:14:41.365Z,18.48
2022-12-22T14:17:26.251Z,19.27
2022-12-22T14:19:55.599Z,19.12
2022-12-22T14:22:26.047Z,25.95
2022-12-22T14:24:56.543Z,21.60
2022-12-22T14:27:23.331Z,20.50
2022-12-22T14:32:38.526Z,21.00
2022-12-22T14:35:21.570Z,30.48
2022-12-22T14:37:49.906Z,24.95
2022-12-22T14:40:37.681Z,21.75
2022-12-22T14:43:07.151Z,25.75
2022-12-22T14:45:34.342Z,22.67
2022-12-22T14:48:01.244Z,21.02
2022-12-22T14:52:57.702Z,17.58
2022-12-22T14:55:49.383Z,24.67
2022-12-22T14:58:23.081Z,31.15
2022-12-22T15:01:14.648Z,21.83
2022-12-22T15:03:42.358Z,24.05
2022-12-22T15:06:27.660Z,33.38
2022-12-22T15:09:09.144Z,36.08
2022-12-22T15:11:38.500Z,29.83
2022-12-22T15:14:05.443Z,23.12
2022-12-22T15:16:32.376Z,31.92
2022-12-22T15:18:59.280Z,27.13
2022-12-22T15:23:52.780Z,21.83
2022-12-22T15:28:46.346Z,16.35
2022-12-22T15:31:17.344Z,14.55
2022-12-22T15:33:45.034Z,16.27
2022-12-22T15:36:13.684Z,21.52
2022-12-22T15:38:42.345Z,32.65
2022-12-22T15:41:09.268Z,28.12
2022-12-22T15:46:23.174Z,23.48
2022-12-22T15:48:50.162Z,23.87
2022-12-22T15:51:25.776Z,27.45
2022-12-22T15:53:53.538Z,21.27
2022-12-22T15:56:22.691Z,22.85
2022-12-22T15:58:49.998Z,27.20
2022-12-22T16:01:17.151Z,24.85
2022-12-22T16:03:44.269Z,27.45
2022-12-22T16:06:16.393Z,25.10
2022-12-22T16:08:48.916Z,26.83
2022-12-22T16:11:16.050Z,25.17
2022-12-22T16:13:42.928Z,24.87
2022-12-22T16:16:09.862Z,26.20
2022-12-22T16:18:36.885Z,28.33
2022-12-22T16:21:12.249Z,32.08
2022-12-22T16:23:41.450Z,25.42
2022-12-22T16:26:08.882Z,27.15
2022-12-22T16:28:35.772Z,26.45
2022-12-22T16:31:02.738Z,24.77
2022-12-22T16:33:29.618Z,30.02
2022-12-22T16:38:23.106Z,34.55
2022-12-22T16:40:52.315Z,31.50
2022-12-22T16:43:50.387Z,31.30
2022-12-22T16:46:19.300Z,28.75
2022-12-22T16:48:51.365Z,23.73
2022-12-22T16:51:24.854Z,28.17
2022-12-22T16:53:51.843Z,27.65
2022-12-22T16:56:24.999Z,29.35
2022-12-22T16:58:51.831Z,29.05
2022-12-22T17:03:52.569Z,23.67
2022-12-22T17:06:19.547Z,23.00
2022-12-22T17:08:46.889Z,27.48
2022-12-22T17:11:24.297Z,31.80
2022-12-22T17:16:23.280Z,31.92
2022-12-22T17:18:50.263Z,28.83
2022-12-22T17:21:19.035Z,24.05
2022-12-22T17:23:50.215Z,23.25
2022-12-22T17:26:20.158Z,24.50
2022-12-22T17:28:47.906Z,27.23
2022-12-22T17:31:17.274Z,24.12
2022-12-22T17:33:44.253Z,26.10
2022-12-22T17:36:18.711Z,22.05
2022-12-22T17:38:45.987Z,21.98
2022-12-22T17:41:17.377Z,21.98
2022-12-22T17:43:45.393Z,23.08
2022-12-22T17:46:20.251Z,22.35
2022-12-22T17:48:47.743Z,22.05
2022-12-22T17:51:25.643Z,22.67
2022-12-22T17:53:53.166Z,24.27
2022-12-22T17:56:22.294Z,23.27
2022-12-22T17:58:49.906Z,23.15
2022-12-22T18:01:21.974Z,24.87
2022-12-22T18:03:49.139Z,24.00
2022-12-22T18:06:18.287Z,31.50
2022-12-22T18:08:45.655Z,27.80
2022-12-22T18:11:12.813Z,24.05
2022-12-22T18:13:39.708Z,21.55
2022-12-22T18:16:07.689Z,22.85
2022-12-22T18:18:35.017Z,20.92
2022-12-22T18:21:05.933Z,19.87
2022-12-22T18:23:35.057Z,21.05
2022-12-22T18:26:01.959Z,20.10
2022-12-22T18:28:28.832Z,20.00
2022-12-22T18:30:55.704Z,19.92
2022-12-22T18:33:22.572Z,22.15
2022-12-22T18:35:49.639Z,21.37
2022-12-22T18:38:27.966Z,20.40
2022-12-22T18:40:55.301Z,20.50
2022-12-22T18:43:22.372Z,20.40
2022-12-22T18:45:49.353Z,19.45
2022-12-22T18:48:16.496Z,22.55
2022-12-22T18:50:43.649Z,25.40
2022-12-22T18:53:24.874Z,26.67
2022-12-22T18:55:51.857Z,32.63
2022-12-22T18:58:18.753Z,28.87
2022-12-22T19:00:45.745Z,31.42
2022-12-22T19:03:17.793Z,30.27
2022-12-22T19:05:45.660Z,37.50
2022-12-22T19:08:16.738Z,28.30
2022-12-22T19:10:55.198Z,32.60
2022-12-22T19:13:38.890Z,33.92
2022-12-22T19:16:06.843Z,20.23
2022-12-22T19:18:33.766Z,19.42
2022-12-22T19:21:00.646Z,17.23
2022-12-22T19:23:27.518Z,16.20
2022-12-22T19:26:08.396Z,17.12
2022-12-22T19:28:41.470Z,16.20
2022-12-22T19:31:10.320Z,15.95
2022-12-22T19:33:41.678Z,16.35
2022-12-22T19:36:15.585Z,16.48
2022-12-22T19:38:44.013Z,16.42
2022-12-22T19:41:23.625Z,15.20
2022-12-22T19:43:50.509Z,14.38
2022-12-22T19:46:17.430Z,15.70
2022-12-22T19:48:46.453Z,15.65
2022-12-22T19:51:17.603Z,17.17
2022-12-22T19:53:44.828Z,17.10
2022-12-22T19:58:47.315Z,14.85
2022-12-22T20:01:14.230Z,15.48
2022-12-22T20:03:41.231Z,17.85
2022-12-22T20:06:09.061Z,19.50
2022-12-22T20:08:36.310Z,21.08
2022-12-22T20:11:03.318Z,24.45
2022-12-22T20:13:32.182Z,22.92
2022-12-22T20:15:59.496Z,20.88
2022-12-22T20:18:29.288Z,22.45
2022-12-22T20:21:01.796Z,23.33
2022-12-22T20:23:29.989Z,23.25
2022-12-22T20:26:06.295Z,24.75
2022-12-22T20:28:37.212Z,23.52
2022-12-22T20:31:05.510Z,24.23
2022-12-22T20:33:33.066Z,23.15
2022-12-22T20:36:01.258Z,22.17
2022-12-22T20:38:32.287Z,19.02
2022-12-22T20:40:59.803Z,19.23
2022-12-22T20:43:28.330Z,17.98
2022-12-22T20:45:57.693Z,19.48
2022-12-22T20:48:39.424Z,17.60
2022-12-22T20:51:10.483Z,18.02
2022-12-22T20:53:37.347Z,18.40
2022-12-22T20:56:04.437Z,18.33
2022-12-22T20:58:34.403Z,18.02
2022-12-22T21:01:02.026Z,18.15
2022-12-22T21:03:29.017Z,18.87
2022-12-22T21:05:56.001Z,17.87
2022-12-22T21:08:25.428Z,18.50
2022-12-22T21:10:54.061Z,18.87
2022-12-22T21:13:21.133Z,19.25
2022-12-22T21:15:50.941Z,19.60
2022-12-22T21:18:22.737Z,20.42
2022-12-22T21:20:50.633Z,19.90
2022-12-22T21:23:17.792Z,18.42
2022-12-22T21:25:47.258Z,18.90
2022-12-22T21:28:37.454Z,19.35
2022-12-22T21:31:04.846Z,18.87
2022-12-22T21:33:31.744Z,19.65
2022-12-22T21:35:59.592Z,19.08
2022-12-22T21:38:28.083Z,20.58
2022-12-22T21:40:55.061Z,22.92
2022-12-22T21:43:21.956Z,22.00
2022-12-22T21:45:49.679Z,24.75
2022-12-22T21:48:19.927Z,21.87
2022-12-22T21:50:50.413Z,22.92
2022-12-22T21:53:21.985Z,25.05
2022-12-22T21:55:49.514Z,23.55
2022-12-22T21:58:16.738Z,23.62
2022-12-22T22:00:48.942Z,21.83
2022-12-22T22:03:16.697Z,23.02
2022-12-22T22:05:43.936Z,25.42
2022-12-22T22:08:12.454Z,23.05
2022-12-22T22:10:41.723Z,22.98
2022-12-22T22:13:10.199Z,22.87
2022-12-22T22:15:37.325Z,26.92
2022-12-22T22:18:07.219Z,24.33
2022-12-22T22:20:35.153Z,19.65
2022-12-22T22:23:02.140Z,18.70
2022-12-22T22:25:29.043Z,18.33
2022-12-22T22:27:59.568Z,18.90
2022-12-22T22:30:27.137Z,17.92
2022-12-22T22:32:54.999Z,18.27
2022-12-22T22:35:22.623Z,20.17
2022-12-22T22:37:52.718Z,19.90
2022-12-22T22:40:21.943Z,23.17
2022-12-22T22:42:49.205Z,21.60
2022-12-22T22:45:23.301Z,23.95
2022-12-22T22:47:51.321Z,21.92
2022-12-22T22:50:19.204Z,21.42
2022-12-22T22:52:46.445Z,20.77
2022-12-22T22:55:14.497Z,19.35
2022-12-22T22:57:42.671Z,21.92
2022-12-22T23:00:12.430Z,22.05
2022-12-22T23:02:39.429Z,21.92
2022-12-22T23:05:07.591Z,24.77
2022-12-22T23:07:35.830Z,23.90
2022-12-22T23:10:03.291Z,25.45
2022-12-22T23:12:30.125Z,24.23
2022-12-22T23:17:24.127Z,24.42
2022-12-22T23:19:50.978Z,22.15
2022-12-22T23:24:44.496Z,23.20
2022-12-22T23:27:11.597Z,24.20
2022-12-22T23:29:38.479Z,23.05
2022-12-22T23:32:05.859Z,28.40
2022-12-22T23:34:33.072Z,25.67
2022-12-22T23:36:59.898Z,26.05
2022-12-22T23:41:53.421Z,26.80
2022-12-22T23:46:47.004Z,27.02
2022-12-22T23:49:14.192Z,27.33
2022-12-22T23:51:41.110Z,25.70
2022-12-22T23:54:08.000Z,25.40
2022-12-22T23:56:34.849Z,23.45
